Terminal Aerodrome Forecast
Issued by NWS Corpus Christi, TX

Home | Current Version | Previous Version | Text Only | Print | Product List | Glossary On
Versions: 1 2 3 4 5 6 7 8 9 10 11 12 13 14
000
FTUS44 KCRP 282339
TAFCRP
TAF
KCRP 282339Z 2900/2924 14015G22KT P6SM FEW030 BKN200
     FM290100 14012KT P6SM FEW020 BKN200
     FM290600 16008KT P6SM SCT015 BKN250
      TEMPO 2908/2912 BKN015
     FM291430 16011KT P6SM SCT025 SCT250
     FM291800 14017G25KT P6SM SCT040 SCT250=

USA.gov is the U.S. government's official web portal to all federal, state and local government web resources and services.